Terminal Aerodrome Forecast
Issued by NWS South Bend, IN

Home | Current Version | Previous Version | Graphics & Text | Print | Product List | Glossary On
Versions: 1 2 3 4 5 6 7 8 9 10 11 12 13 14
000
FTUS43 KIWX 232300 RRA
TAFSBN
TAF
KSBN 232339Z 2400/2424 30006KT P6SM SKC
     FM240100 VRB02KT P6SM SKC
     FM241500 26005KT P6SM SCT150
     FM242300 08008KT P6SM OVC060=

USA.gov is the U.S. government's official web portal to all federal, state and local government web resources and services.